createdAt,value
2022-08-16T00:01:18.878Z,9.30
2022-08-16T00:03:46.923Z,9.13
2022-08-16T00:06:15.442Z,11.00
2022-08-16T00:08:45.837Z,9.50
2022-08-16T00:11:15.366Z,9.83
2022-08-16T00:13:53.699Z,9.67
2022-08-16T00:17:05.388Z,9.90
2022-08-16T00:19:14.598Z,10.47
2022-08-16T00:21:43.410Z,11.33
2022-08-16T00:24:12.516Z,12.17
2022-08-16T00:26:44.539Z,12.90
2022-08-16T00:29:15.565Z,12.97
2022-08-16T00:32:01.671Z,12.30
2022-08-16T00:34:43.151Z,13.77
2022-08-16T00:37:21.123Z,14.13
2022-08-16T00:39:57.175Z,12.97
2022-08-16T00:42:32.425Z,13.43
2022-08-16T00:45:09.424Z,12.83
2022-08-16T00:47:49.071Z,12.70
2022-08-16T00:50:18.258Z,12.80
2022-08-16T00:52:51.072Z,13.27
2022-08-16T00:55:19.940Z,12.80
2022-08-16T00:57:59.723Z,12.90
2022-08-16T01:00:30.179Z,11.10
2022-08-16T01:03:00.496Z,10.43
2022-08-16T01:05:28.958Z,11.50
2022-08-16T01:07:58.528Z,11.20
2022-08-16T01:10:31.469Z,10.70
2022-08-16T01:13:01.755Z,10.97
2022-08-16T01:15:33.263Z,11.90
2022-08-16T01:18:04.488Z,11.10
2022-08-16T01:20:36.582Z,10.37
2022-08-16T01:23:08.438Z,10.80
2022-08-16T01:25:40.146Z,9.63
2022-08-16T01:28:09.390Z,11.83
2022-08-16T01:30:40.014Z,10.70
2022-08-16T01:33:19.272Z,10.07
2022-08-16T01:35:52.695Z,10.23
2022-08-16T01:38:25.694Z,10.63
2022-08-16T01:40:58.287Z,10.23
2022-08-16T01:43:31.125Z,10.50
2022-08-16T01:46:00.361Z,9.87
2022-08-16T01:48:48.826Z,10.47
2022-08-16T01:51:17.757Z,10.63
2022-08-16T01:53:54.665Z,10.30
2022-08-16T01:56:25.574Z,10.20
2022-08-16T01:58:53.863Z,10.50
2022-08-16T02:01:21.654Z,11.33
2022-08-16T02:03:50.711Z,10.97
2022-08-16T02:06:33.601Z,11.03
2022-08-16T02:09:05.232Z,11.53
2022-08-16T02:11:47.511Z,11.20
2022-08-16T02:14:18.447Z,12.37
2022-08-16T02:16:49.511Z,12.97
2022-08-16T02:19:20.082Z,13.30
2022-08-16T02:22:09.109Z,13.80
2022-08-16T02:24:46.013Z,13.37
2022-08-16T02:27:16.017Z,12.83
2022-08-16T02:29:44.129Z,13.40
2022-08-16T02:32:49.080Z,13.60
2022-08-16T02:35:03.746Z,14.40
2022-08-16T02:37:51.410Z,14.37
2022-08-16T02:40:20.150Z,13.30
2022-08-16T02:42:51.130Z,13.07
2022-08-16T02:45:20.658Z,13.20
2022-08-16T02:48:01.724Z,11.47
2022-08-16T02:50:54.493Z,11.73
2022-08-16T02:53:29.214Z,13.13
2022-08-16T02:55:59.210Z,12.70
2022-08-16T02:58:31.701Z,15.27
2022-08-16T03:01:00.245Z,14.93
2022-08-16T03:04:24.755Z,16.57
2022-08-16T03:06:42.227Z,14.57
2022-08-16T03:09:13.120Z,14.70
2022-08-16T03:11:43.665Z,15.60
2022-08-16T03:14:13.336Z,16.53
2022-08-16T03:16:59.852Z,16.30
2022-08-16T03:19:45.787Z,17.07
2022-08-16T03:22:27.839Z,15.70
2022-08-16T03:24:58.508Z,17.20
2022-08-16T03:27:31.062Z,15.17
2022-08-16T03:30:17.464Z,16.47
2022-08-16T03:32:47.360Z,16.00
2022-08-16T03:35:17.898Z,17.37
2022-08-16T03:38:01.625Z,15.43
2022-08-16T03:40:31.708Z,15.90
2022-08-16T03:43:19.847Z,16.20
2022-08-16T03:45:52.994Z,16.03
2022-08-16T03:48:37.050Z,15.83
2022-08-16T03:51:09.812Z,15.70
2022-08-16T03:53:41.618Z,16.10
2022-08-16T03:56:19.660Z,15.13
2022-08-16T03:58:49.802Z,15.27
2022-08-16T04:01:20.622Z,16.87
2022-08-16T04:03:48.575Z,14.63
2022-08-16T04:06:17.940Z,14.67
2022-08-16T04:08:48.414Z,15.60
2022-08-16T04:11:17.146Z,16.40
2022-08-16T04:14:01.402Z,16.80
2022-08-16T04:16:34.891Z,17.90
2022-08-16T04:19:04.567Z,17.70
2022-08-16T04:21:33.221Z,17.17
2022-08-16T04:24:03.083Z,18.43
2022-08-16T04:26:32.468Z,20.07
2022-08-16T04:29:15.262Z,19.70
2022-08-16T04:31:56.440Z,18.60
2022-08-16T04:34:27.168Z,17.03
2022-08-16T04:36:55.227Z,18.30
2022-08-16T04:39:24.596Z,17.57
2022-08-16T04:42:11.322Z,16.77
2022-08-16T04:44:54.447Z,15.53
2022-08-16T04:47:33.471Z,16.23
2022-08-16T04:50:04.834Z,17.37
2022-08-16T04:52:35.860Z,18.27
2022-08-16T04:55:08.593Z,17.20
2022-08-16T04:57:41.224Z,17.57
2022-08-16T05:00:31.751Z,16.63
2022-08-16T05:03:07.501Z,17.33
2022-08-16T05:05:45.453Z,17.80
2022-08-16T05:08:29.058Z,17.80
2022-08-16T05:11:00.205Z,16.73
2022-08-16T05:13:41.134Z,17.27
2022-08-16T05:16:11.796Z,17.37
2022-08-16T05:18:41.590Z,14.13
2022-08-16T05:21:12.580Z,15.73
2022-08-16T05:23:41.146Z,15.73
2022-08-16T05:26:20.164Z,15.33
2022-08-16T05:28:55.384Z,16.17
2022-08-16T05:31:24.085Z,14.93
2022-08-16T05:33:58.962Z,15.37
2022-08-16T05:36:33.921Z,15.97
2022-08-16T05:39:04.897Z,17.30
2022-08-16T05:41:32.929Z,15.90
2022-08-16T05:44:24.001Z,12.97
2022-08-16T05:46:53.744Z,15.17
2022-08-16T05:49:42.067Z,15.53
2022-08-16T05:52:13.780Z,15.73
2022-08-16T05:54:47.440Z,15.80
2022-08-16T05:57:17.883Z,14.87
2022-08-16T05:59:50.367Z,15.50
2022-08-16T06:02:29.908Z,15.40
2022-08-16T06:05:03.875Z,14.53
2022-08-16T06:07:32.420Z,13.57
2022-08-16T06:10:01.623Z,13.97
2022-08-16T06:12:31.216Z,13.50
2022-08-16T06:15:00.334Z,12.40
2022-08-16T06:17:42.900Z,11.68
2022-08-16T06:20:18.051Z,13.07
2022-08-16T06:22:47.809Z,13.05
2022-08-16T06:25:36.042Z,12.27
2022-08-16T06:28:08.804Z,13.27
2022-08-16T06:30:43.918Z,12.48
2022-08-16T06:33:19.634Z,12.25
2022-08-16T06:35:55.311Z,11.80
2022-08-16T06:38:33.936Z,12.30
2022-08-16T06:41:03.889Z,12.75
2022-08-16T06:43:32.536Z,11.95
2022-08-16T06:46:00.695Z,13.52
2022-08-16T06:48:32.527Z,15.00
2022-08-16T06:51:04.746Z,13.02
2022-08-16T06:53:35.779Z,14.38
2022-08-16T06:56:06.089Z,13.45
2022-08-16T06:58:43.595Z,13.57
2022-08-16T07:01:15.045Z,12.75
2022-08-16T07:03:55.457Z,11.75
2022-08-16T07:06:28.232Z,12.73
2022-08-16T07:08:57.042Z,13.65
2022-08-16T07:11:45.683Z,13.73
2022-08-16T07:14:25.040Z,14.13
2022-08-16T07:16:58.094Z,13.63
2022-08-16T07:20:01.765Z,12.43
2022-08-16T07:22:39.013Z,12.57
2022-08-16T07:25:05.059Z,13.52
2022-08-16T07:27:33.702Z,12.77
2022-08-16T07:30:04.582Z,13.38
2022-08-16T07:32:32.633Z,13.77
2022-08-16T07:35:02.969Z,13.30
2022-08-16T07:37:32.375Z,13.30
2022-08-16T07:40:00.683Z,13.35
2022-08-16T07:42:35.361Z,12.98
2022-08-16T07:45:03.659Z,13.73
2022-08-16T07:47:56.402Z,12.52
2022-08-16T07:50:56.041Z,13.00
2022-08-16T07:53:14.676Z,12.10
2022-08-16T07:55:47.815Z,12.57
2022-08-16T07:58:18.421Z,12.55
2022-08-16T08:01:10.979Z,14.38
2022-08-16T08:03:47.697Z,12.07
2022-08-16T08:06:17.677Z,12.25
2022-08-16T08:08:50.488Z,11.70
2022-08-16T08:11:21.478Z,13.10
2022-08-16T08:13:50.665Z,12.95
2022-08-16T08:16:19.956Z,12.50
2022-08-16T08:19:00.672Z,11.55
2022-08-16T08:22:01.115Z,12.38
2022-08-16T08:24:21.523Z,11.77
2022-08-16T08:26:50.165Z,12.23
2022-08-16T08:29:22.922Z,11.90
2022-08-16T08:31:53.698Z,11.85
2022-08-16T08:34:23.118Z,11.07
2022-08-16T08:36:54.266Z,11.65
2022-08-16T08:39:25.437Z,11.85
2022-08-16T08:41:53.839Z,10.18
2022-08-16T08:44:29.060Z,8.93
2022-08-16T08:47:01.387Z,8.70
2022-08-16T08:49:46.245Z,8.45
2022-08-16T08:52:34.915Z,8.32
2022-08-16T08:55:10.926Z,8.57
2022-08-16T08:57:40.596Z,8.30
2022-08-16T09:00:13.011Z,7.85
2022-08-16T09:02:42.192Z,8.45
2022-08-16T09:05:15.546Z,8.23
2022-08-16T09:08:00.959Z,8.35
2022-08-16T09:10:32.579Z,8.43
2022-08-16T09:13:02.265Z,7.47
2022-08-16T09:15:33.204Z,8.00
2022-08-16T09:18:02.051Z,6.00
2022-08-16T09:20:59.120Z,5.80
2022-08-16T09:23:29.330Z,5.47
2022-08-16T09:25:58.896Z,5.97
2022-08-16T09:29:06.819Z,5.13
2022-08-16T09:31:15.207Z,5.85
2022-08-16T09:33:44.303Z,6.05
2022-08-16T09:36:32.452Z,5.20
2022-08-16T09:39:03.786Z,5.90
2022-08-16T09:41:33.644Z,6.85
2022-08-16T09:45:12.351Z,5.03
2022-08-16T09:46:57.443Z,5.63
2022-08-16T09:49:26.376Z,6.25
2022-08-16T09:52:05.859Z,5.47
2022-08-16T09:54:34.144Z,6.15
2022-08-16T09:57:03.756Z,6.60
2022-08-16T09:59:38.724Z,6.13
2022-08-16T10:02:27.435Z,5.50
2022-08-16T10:04:56.176Z,5.70
2022-08-16T10:07:24.879Z,5.53
2022-08-16T10:09:56.074Z,5.82
2022-08-16T10:12:44.190Z,5.65
2022-08-16T10:15:15.885Z,7.00
2022-08-16T10:17:45.678Z,5.88
2022-08-16T10:20:30.892Z,6.18
2022-08-16T10:23:05.800Z,6.15
2022-08-16T10:27:20.420Z,5.70
2022-08-16T10:28:29.133Z,5.75
2022-08-16T10:30:59.082Z,5.18
2022-08-16T10:33:29.565Z,6.20
2022-08-16T10:36:03.285Z,5.88
2022-08-16T10:38:36.719Z,5.45
2022-08-16T10:41:06.750Z,5.40
2022-08-16T10:43:39.571Z,5.80
2022-08-16T10:46:39.278Z,6.03
2022-08-16T10:48:57.627Z,5.40
2022-08-16T10:51:33.412Z,5.95
2022-08-16T10:54:04.900Z,5.15
2022-08-16T10:56:55.614Z,5.55
2022-08-16T10:59:38.405Z,5.10
2022-08-16T11:02:58.724Z,5.38
2022-08-16T11:05:08.511Z,5.65
2022-08-16T11:07:45.597Z,5.38
2022-08-16T11:16:25.357Z,5.80
2022-08-16T11:19:03.901Z,5.55
2022-08-16T11:21:37.521Z,4.43
2022-08-16T11:24:39.709Z,7.75
2022-08-16T11:27:32.579Z,5.40
2022-08-16T11:29:58.100Z,5.47
2022-08-16T11:32:31.519Z,5.03
2022-08-16T11:35:14.369Z,5.30
2022-08-16T11:40:36.280Z,5.20
2022-08-16T11:43:04.852Z,5.65
2022-08-16T11:45:34.652Z,5.13
2022-08-16T11:48:04.252Z,5.95
2022-08-16T11:50:34.591Z,6.70
2022-08-16T11:53:03.886Z,6.63
2022-08-16T11:55:33.627Z,5.38
2022-08-16T11:58:07.006Z,6.70
2022-08-16T12:00:51.185Z,6.05
2022-08-16T12:03:34.606Z,6.67
2022-08-16T12:06:11.302Z,6.03
2022-08-16T12:08:55.619Z,5.33
2022-08-16T12:11:23.734Z,4.67
2022-08-16T12:13:54.651Z,5.30
2022-08-16T12:16:22.714Z,5.30
2022-08-16T12:18:52.163Z,5.53
2022-08-16T12:21:20.303Z,5.47
2022-08-16T12:23:50.710Z,6.30
2022-08-16T12:26:19.091Z,5.70
2022-08-16T12:28:55.868Z,7.80
2022-08-16T12:31:26.434Z,8.03
2022-08-16T12:33:57.968Z,11.50
2022-08-16T12:36:26.640Z,8.77
2022-08-16T12:38:58.860Z,8.38
2022-08-16T12:41:27.443Z,6.82
2022-08-16T12:44:01.331Z,7.03
2022-08-16T12:46:31.173Z,5.97
2022-08-16T12:49:01.255Z,9.50
2022-08-16T12:51:57.689Z,9.15
2022-08-16T12:54:20.123Z,12.57
2022-08-16T12:56:48.345Z,11.65
2022-08-16T12:59:20.520Z,11.48
2022-08-16T13:01:58.098Z,8.40
2022-08-16T13:04:31.442Z,11.38
2022-08-16T13:09:32.931Z,8.68
2022-08-16T13:12:19.363Z,6.93
2022-08-16T13:14:50.062Z,5.60
2022-08-16T13:17:20.375Z,5.22
2022-08-16T13:20:08.566Z,5.35
2022-08-16T13:22:38.039Z,6.18
2022-08-16T13:25:08.816Z,6.65
2022-08-16T13:28:02.987Z,5.60
2022-08-16T13:30:36.187Z,5.25
2022-08-16T13:33:11.466Z,4.90
2022-08-16T13:35:44.081Z,5.20
2022-08-16T13:38:24.855Z,5.60
2022-08-16T13:40:56.193Z,5.82
2022-08-16T13:43:24.874Z,5.55
2022-08-16T13:45:56.600Z,5.57
2022-08-16T13:48:26.177Z,4.43
2022-08-16T13:50:58.024Z,3.90
2022-08-16T13:53:30.981Z,4.30
2022-08-16T13:56:00.717Z,4.20
2022-08-16T13:58:36.150Z,3.38
2022-08-16T14:01:09.537Z,3.90
2022-08-16T14:03:38.019Z,4.35
2022-08-16T14:06:10.792Z,3.65
2022-08-16T14:08:41.949Z,4.25
2022-08-16T14:11:12.060Z,4.07
2022-08-16T14:13:40.613Z,3.25
2022-08-16T14:16:12.578Z,3.70
2022-08-16T14:18:52.585Z,3.67
2022-08-16T14:21:23.830Z,3.42
2022-08-16T14:23:52.641Z,3.80
2022-08-16T14:26:22.211Z,3.58
2022-08-16T14:28:56.168Z,3.70
2022-08-16T14:31:30.965Z,3.83
2022-08-16T14:34:02.038Z,3.80
2022-08-16T14:36:31.451Z,3.97
2022-08-16T14:38:59.980Z,4.05
2022-08-16T14:41:28.965Z,4.10
2022-08-16T14:43:58.657Z,3.90
2022-08-16T14:46:26.862Z,4.20
2022-08-16T14:48:55.906Z,3.83
2022-08-16T14:51:27.353Z,4.20
2022-08-16T14:53:57.231Z,4.22
2022-08-16T14:56:38.495Z,3.95
2022-08-16T14:59:11.167Z,4.43
2022-08-16T15:01:57.946Z,3.88
2022-08-16T15:04:32.500Z,3.75
2022-08-16T15:07:10.177Z,3.88
2022-08-16T15:09:44.854Z,4.47
2022-08-16T15:12:31.172Z,3.95
2022-08-16T15:15:04.581Z,3.92
2022-08-16T15:17:40.682Z,3.97
2022-08-16T15:20:09.342Z,3.58
2022-08-16T15:22:41.291Z,4.10
2022-08-16T15:25:13.627Z,3.45
2022-08-16T15:27:44.422Z,3.67
2022-08-16T15:30:59.715Z,3.75
2022-08-16T15:33:02.251Z,3.33
2022-08-16T15:35:30.528Z,3.08
2022-08-16T15:38:01.491Z,3.78
2022-08-16T15:40:57.804Z,3.58
2022-08-16T15:43:38.855Z,3.85
2022-08-16T15:46:54.192Z,3.60
2022-08-16T15:49:15.530Z,6.18
2022-08-16T15:51:45.696Z,9.20
2022-08-16T15:54:21.301Z,5.38
2022-08-16T15:57:09.659Z,3.65
2022-08-16T15:59:48.768Z,4.05
2022-08-16T16:02:29.462Z,3.90
2022-08-16T16:05:00.870Z,3.88
2022-08-16T16:07:30.452Z,4.32
2022-08-16T16:09:58.876Z,3.90
2022-08-16T16:15:16.823Z,3.92
2022-08-16T16:17:50.727Z,4.47
2022-08-16T16:20:19.461Z,4.30
2022-08-16T16:22:47.849Z,5.10
2022-08-16T16:25:17.867Z,3.70
2022-08-16T16:27:55.365Z,4.13
2022-08-16T16:30:37.274Z,4.68
2022-08-16T16:33:15.549Z,4.38
2022-08-16T16:35:56.625Z,6.38
2022-08-16T16:38:26.505Z,6.18
2022-08-16T16:40:55.156Z,4.82
2022-08-16T16:43:25.376Z,6.35
2022-08-16T16:45:54.232Z,8.52
2022-08-16T16:48:22.148Z,5.18
2022-08-16T16:50:58.455Z,7.63
2022-08-16T16:53:26.868Z,9.38
2022-08-16T16:55:59.594Z,13.27
2022-08-16T16:58:53.549Z,7.00
2022-08-16T17:01:35.010Z,8.90
2022-08-16T17:04:19.547Z,5.30
2022-08-16T17:06:53.352Z,5.18
2022-08-16T17:09:22.230Z,5.63
2022-08-16T17:11:55.498Z,5.75
2022-08-16T17:14:32.964Z,6.05
2022-08-16T17:17:04.152Z,5.30
2022-08-16T17:19:32.407Z,5.13
2022-08-16T17:22:00.433Z,6.95
2022-08-16T17:24:33.212Z,5.78
2022-08-16T17:27:08.027Z,6.82
2022-08-16T17:29:45.914Z,6.03
2022-08-16T17:32:44.555Z,6.68
2022-08-16T17:35:11.560Z,6.43
2022-08-16T17:37:51.678Z,5.28
2022-08-16T17:40:25.529Z,5.70
2022-08-16T17:43:10.427Z,5.32
2022-08-16T17:45:40.283Z,5.40
2022-08-16T17:48:08.595Z,6.20
2022-08-16T17:50:37.029Z,5.22
2022-08-16T17:53:06.100Z,5.50
2022-08-16T17:55:36.171Z,5.47
2022-08-16T17:58:20.138Z,5.55
2022-08-16T18:00:53.131Z,5.55
2022-08-16T18:04:06.547Z,5.95
2022-08-16T18:06:13.241Z,5.38
2022-08-16T18:08:42.747Z,5.45
2022-08-16T18:11:12.099Z,5.50
2022-08-16T18:13:43.286Z,6.38
2022-08-16T18:16:14.726Z,5.85
2022-08-16T18:18:43.061Z,6.57
2022-08-16T18:21:29.569Z,7.53
2022-08-16T18:23:57.566Z,7.55
2022-08-16T18:26:25.818Z,7.18
2022-08-16T18:28:54.080Z,7.75
2022-08-16T18:31:24.863Z,6.93
2022-08-16T18:33:55.645Z,6.22
2022-08-16T18:36:24.106Z,6.30
2022-08-16T18:38:52.485Z,5.93
2022-08-16T18:41:20.996Z,6.32
2022-08-16T18:44:23.571Z,6.18
2022-08-16T18:46:38.573Z,5.80
2022-08-16T18:49:07.204Z,6.72
2022-08-16T18:51:35.164Z,7.00
2022-08-16T18:54:03.383Z,6.93
2022-08-16T18:56:56.524Z,6.85
2022-08-16T18:59:19.527Z,6.82
2022-08-16T19:01:51.491Z,5.13
2022-08-16T19:04:50.420Z,6.00
2022-08-16T19:07:07.218Z,5.22
2022-08-16T19:09:38.694Z,5.53
2022-08-16T19:12:06.653Z,4.97
2022-08-16T19:14:34.536Z,4.90
2022-08-16T19:17:05.871Z,5.18
2022-08-16T19:19:33.716Z,5.05
2022-08-16T19:22:01.877Z,4.20
2022-08-16T19:24:29.938Z,5.30
2022-08-16T19:26:59.220Z,4.53
2022-08-16T19:29:29.794Z,4.68
2022-08-16T19:31:58.345Z,4.88
2022-08-16T19:34:27.557Z,4.57
2022-08-16T19:36:56.874Z,4.25
2022-08-16T19:39:28.111Z,4.05
2022-08-16T19:41:59.851Z,4.70
2022-08-16T19:44:28.986Z,4.60
2022-08-16T19:46:58.983Z,4.03
2022-08-16T19:49:28.437Z,4.25
2022-08-16T19:51:56.344Z,4.38
2022-08-16T19:54:24.098Z,4.43
2022-08-16T19:56:51.952Z,3.97
2022-08-16T19:59:39.504Z,4.53
2022-08-16T20:02:10.813Z,4.72
2022-08-16T20:05:04.346Z,4.20
2022-08-16T20:07:32.931Z,4.38
2022-08-16T20:10:01.180Z,4.47
2022-08-16T20:12:30.984Z,3.70
2022-08-16T20:14:59.387Z,3.72
2022-08-16T20:17:27.302Z,4.43
2022-08-16T20:19:55.509Z,4.13
2022-08-16T20:22:51.993Z,4.35
2022-08-16T20:25:16.244Z,4.20
2022-08-16T20:27:45.572Z,4.45
2022-08-16T20:30:14.930Z,3.85
2022-08-16T20:32:42.811Z,4.60
2022-08-16T20:35:12.260Z,3.95
2022-08-16T20:37:43.107Z,4.07
2022-08-16T20:40:28.519Z,4.28
2022-08-16T20:43:02.561Z,4.80
2022-08-16T20:45:30.627Z,4.10
2022-08-16T20:47:59.131Z,4.85
2022-08-16T20:50:27.717Z,4.18
2022-08-16T20:52:57.448Z,4.68
2022-08-16T20:55:28.807Z,4.18
2022-08-16T20:57:57.239Z,4.28
2022-08-16T21:00:25.128Z,4.53
2022-08-16T21:02:54.979Z,4.28
2022-08-16T21:05:31.195Z,4.80
2022-08-16T21:08:50.432Z,4.40
2022-08-16T21:10:56.510Z,5.05
2022-08-16T21:13:28.500Z,5.80
2022-08-16T21:15:57.695Z,5.45
2022-08-16T21:18:26.982Z,5.20
2022-08-16T21:20:56.503Z,5.60
2022-08-16T21:23:28.652Z,5.07
2022-08-16T21:26:00.580Z,5.07
2022-08-16T21:28:40.644Z,5.13
2022-08-16T21:31:12.079Z,5.63
2022-08-16T21:33:41.253Z,4.85
2022-08-16T21:36:11.197Z,5.18
2022-08-16T21:38:42.298Z,5.00
2022-08-16T21:41:13.395Z,5.00
2022-08-16T21:43:43.380Z,5.20
2022-08-16T21:46:13.897Z,4.87
2022-08-16T21:48:45.248Z,4.30
2022-08-16T21:51:15.472Z,5.07
2022-08-16T21:53:46.606Z,5.17
2022-08-16T21:56:19.554Z,4.63
2022-08-16T21:58:52.962Z,4.50
2022-08-16T22:01:23.837Z,4.73
2022-08-16T22:04:05.760Z,4.47
2022-08-16T22:06:45.746Z,4.57
2022-08-16T22:09:17.466Z,4.50
2022-08-16T22:11:45.829Z,4.70
2022-08-16T22:14:13.546Z,4.67
2022-08-16T22:16:44.120Z,4.57
2022-08-16T22:19:13.688Z,4.57
2022-08-16T22:21:41.822Z,4.53
2022-08-16T22:24:15.941Z,5.07
2022-08-16T22:26:45.265Z,5.00
2022-08-16T22:29:14.632Z,5.47
2022-08-16T22:31:43.549Z,5.00
2022-08-16T22:34:11.629Z,4.87
2022-08-16T22:36:40.245Z,5.03
2022-08-16T22:39:10.279Z,4.80
2022-08-16T22:41:38.993Z,5.00
2022-08-16T22:44:08.570Z,5.07
2022-08-16T22:46:37.814Z,4.93
2022-08-16T22:49:07.351Z,4.90
2022-08-16T22:51:36.077Z,4.90
2022-08-16T22:54:40.968Z,4.90
2022-08-16T22:56:52.957Z,5.00
2022-08-16T22:59:25.018Z,5.77
2022-08-16T23:01:53.605Z,5.37
2022-08-16T23:04:21.900Z,5.00
2022-08-16T23:06:49.744Z,5.40
2022-08-16T23:09:17.599Z,5.47
2022-08-16T23:11:45.961Z,6.03
2022-08-16T23:14:16.398Z,4.77
2022-08-16T23:16:47.952Z,5.53
2022-08-16T23:19:17.507Z,5.40
2022-08-16T23:21:48.301Z,5.43
2022-08-16T23:24:17.724Z,5.60
2022-08-16T23:26:48.812Z,5.77
2022-08-16T23:29:24.691Z,5.37
2022-08-16T23:31:59.512Z,5.10
2022-08-16T23:34:28.435Z,5.07
2022-08-16T23:36:56.772Z,6.23
2022-08-16T23:39:25.316Z,5.23
2022-08-16T23:41:53.266Z,5.73
2022-08-16T23:44:42.347Z,6.43
2022-08-16T23:47:10.981Z,6.70
2022-08-16T23:49:57.260Z,6.93
2022-08-16T23:52:53.986Z,6.37
2022-08-16T23:55:17.405Z,6.20
2022-08-16T23:57:47.723Z,6.30
